Time;durP1;ratioP1;P1;durP2;ratioP2;P2;SDS_P1;SDS_P2;PMS_P1;PMS_P2;Temp;Humidity;BMP_temperature;BMP_pressure;BME280_temperature;BME280_humidity;BME280_pressure;Samples;Min_cycle;Max_cycle;Signal;HPM_P1;HPM_P2
2021/05/29 00:00:06;;;;;;;8.68;5.60;;;;;;;;;;5073389;28;20063;-73
2021/05/29 00:02:32;;;;;;;6.57;5.88;;;;;;;;;;5073188;28;20115;-73
2021/05/29 00:04:58;;;;;;;7.38;6.50;;;;;;;;;;5073345;28;20021;-77
2021/05/29 00:07:24;;;;;;;7.30;6.00;;;;;;;;;;5073291;28;20112;-77
2021/05/29 00:09:50;;;;;;;6.03;5.40;;;;;;;;;;5073102;28;20523;-76
2021/05/29 00:12:16;;;;;;;6.50;5.90;;;;;;;;;;5072633;28;20066;-73
2021/05/29 00:14:42;;;;;;;6.53;5.90;;;;;;;;;;5073377;28;20036;-76
2021/05/29 00:17:09;;;;;;;6.80;5.63;;;;;;;;;;5073391;28;20029;-75
2021/05/29 00:19:35;;;;;;;6.90;5.75;;;;;;;;;;5072947;28;20487;-76
2021/05/29 00:22:01;;;;;;;6.07;5.50;;;;;;;;;;5073238;28;20474;-76
2021/05/29 00:24:27;;;;;;;7.45;6.28;;;;;;;;;;5073498;28;20020;-77
2021/05/29 00:26:53;;;;;;;7.25;5.65;;;;;;;;;;5076897;28;20017;-76
2021/05/29 00:29:20;;;;;;;6.93;5.13;;;;;;;;;;5077446;28;20394;-76
2021/05/29 00:31:46;;;;;;;6.68;5.95;;;;;;;;;;5076755;28;20031;-77
2021/05/29 00:34:12;;;;;;;6.72;6.10;;;;;;;;;;5076736;28;20075;-76
2021/05/29 00:36:38;;;;;;;7.38;5.93;;;;;;;;;;5077139;28;20024;-76
2021/05/29 00:39:05;;;;;;;6.32;5.45;;;;;;;;;;5077046;28;20406;-76
2021/05/29 00:41:31;;;;;;;6.45;5.85;;;;;;;;;;5076606;28;20032;-77
2021/05/29 00:43:57;;;;;;;6.75;5.55;;;;;;;;;;5076909;28;20086;-77
2021/05/29 00:46:23;;;;;;;7.45;5.93;;;;;;;;;;5076422;28;20377;-76
2021/05/29 00:48:49;;;;;;;5.85;5.05;;;;;;;;;;5077122;28;20489;-76
2021/05/29 00:51:15;;;;;;;5.93;5.03;;;;;;;;;;5076595;28;20050;-76
2021/05/29 00:53:41;;;;;;;6.50;5.80;;;;;;;;;;5076740;28;20041;-76
2021/05/29 00:56:08;;;;;;;6.68;5.13;;;;;;;;;;5076203;28;20454;-77
2021/05/29 00:58:34;;;;;;;6.68;5.97;;;;;;;;;;5076483;28;20025;-76
2021/05/29 01:01:00;;;;;;;6.07;4.97;;;;;;;;;;5076580;28;20024;-76
2021/05/29 01:03:28;;;;;;;5.78;4.95;;;;;;;;;;5076518;28;20021;-74
2021/05/29 01:05:54;;;;;;;5.45;4.88;;;;;;;;;;5076850;28;20047;-74
2021/05/29 01:08:23;;;;;;;5.15;4.65;;;;;;;;;;5076191;28;20028;-74
2021/05/29 01:10:49;;;;;;;6.05;5.45;;;;;;;;;;5076089;28;20031;-73
2021/05/29 01:13:15;;;;;;;6.30;5.28;;;;;;;;;;5075960;28;20506;-73
2021/05/29 01:15:44;;;;;;;4.50;4.10;;;;;;;;;;5076130;28;20028;-72
2021/05/29 01:18:11;;;;;;;5.60;5.10;;;;;;;;;;5076252;28;20021;-72
2021/05/29 01:20:38;;;;;;;4.30;3.90;;;;;;;;;;5075916;28;20021;-73
2021/05/29 01:23:04;;;;;;;5.35;4.85;;;;;;;;;;5076148;28;20033;-72
2021/05/29 01:25:36;;;;;;;4.93;4.38;;;;;;;;;;5075761;28;20549;-72
2021/05/29 01:28:02;;;;;;;;;;;;;;;;;;5076718;28;20047;-73
2021/05/29 01:30:29;;;;;;;4.72;4.32;;;;;;;;;;5076006;28;19911;-72
2021/05/29 01:32:55;;;;;;;4.70;4.30;;;;;;;;;;5076064;28;20036;-73
2021/05/29 01:35:21;;;;;;;5.25;4.65;;;;;;;;;;5075678;28;20023;-73
2021/05/29 01:37:47;;;;;;;5.20;4.13;;;;;;;;;;5075088;28;20029;-72
2021/05/29 01:40:13;;;;;;;5.00;4.03;;;;;;;;;;5075307;28;20111;-73
2021/05/29 01:42:39;;;;;;;4.70;3.67;;;;;;;;;;5075858;28;20052;-73
2021/05/29 01:45:07;;;;;;;4.63;4.03;;;;;;;;;;5075732;28;20020;-73
2021/05/29 01:47:34;;;;;;;4.05;3.45;;;;;;;;;;5075631;28;20032;-73
2021/05/29 01:50:01;;;;;;;4.53;3.88;;;;;;;;;;5075404;28;20029;-73
2021/05/29 01:52:47;;;;;;;4.30;3.90;;;;;;;;;;5075750;28;20070;-72
2021/05/29 01:55:13;;;;;;;6.07;4.25;;;;;;;;;;5061026;28;20174;-73
2021/05/29 01:57:39;;;;;;;4.25;3.78;;;;;;;;;;5075686;28;20029;-72
2021/05/29 02:00:05;;;;;;;3.78;3.47;;;;;;;;;;5075229;28;20123;-73
2021/05/29 02:02:33;;;;;;;3.80;3.40;;;;;;;;;;5074966;28;20047;-73
2021/05/29 02:04:59;;;;;;;5.65;3.90;;;;;;;;;;5074994;28;20029;-72
2021/05/29 02:07:25;;;;;;;4.15;3.75;;;;;;;;;;5075444;28;20024;-73
2021/05/29 02:09:51;;;;;;;5.03;3.83;;;;;;;;;;5075254;28;20028;-73
2021/05/29 02:12:17;;;;;;;4.85;3.40;;;;;;;;;;5074653;28;20031;-72
2021/05/29 02:14:43;;;;;;;4.90;3.65;;;;;;;;;;5075359;28;20036;-73
2021/05/29 02:17:09;;;;;;;4.30;3.90;;;;;;;;;;5075204;28;20485;-73
2021/05/29 02:19:35;;;;;;;3.47;3.13;;;;;;;;;;5075011;28;20020;-72
2021/05/29 02:22:01;;;;;;;4.13;3.72;;;;;;;;;;5074786;28;20032;-73
2021/05/29 02:24:27;;;;;;;5.32;3.90;;;;;;;;;;5074566;28;20028;-72
2021/05/29 02:26:53;;;;;;;5.25;4.07;;;;;;;;;;5074760;28;20050;-73
2021/05/29 02:29:19;;;;;;;4.47;4.07;;;;;;;;;;5074724;28;20497;-73
2021/05/29 02:31:45;;;;;;;4.00;3.20;;;;;;;;;;5074668;28;20025;-73
2021/05/29 02:34:11;;;;;;;4.95;3.78;;;;;;;;;;5074275;28;20032;-72
2021/05/29 02:36:38;;;;;;;4.72;3.88;;;;;;;;;;5074608;28;20070;-72
2021/05/29 02:39:04;;;;;;;4.18;3.78;;;;;;;;;;5075082;28;20363;-73
2021/05/29 02:41:30;;;;;;;3.83;3.33;;;;;;;;;;5074768;28;20027;-73
2021/05/29 02:43:56;;;;;;;4.07;3.70;;;;;;;;;;5074981;28;20028;-73
2021/05/29 02:46:22;;;;;;;4.38;3.38;;;;;;;;;;5074167;28;20473;-73
2021/05/29 02:48:48;;;;;;;6.10;2.90;;;;;;;;;;5074198;28;20469;-72
2021/05/29 02:51:14;;;;;;;4.00;3.60;;;;;;;;;;5074286;28;20094;-72
2021/05/29 02:53:42;;;;;;;3.80;3.40;;;;;;;;;;5074682;28;20439;-73
2021/05/29 02:56:08;;;;;;;3.45;3.13;;;;;;;;;;5074011;28;20024;-73
2021/05/29 02:58:34;;;;;;;5.13;3.70;;;;;;;;;;5074223;28;20036;-73
2021/05/29 03:01:01;;;;;;;4.18;3.78;;;;;;;;;;5074306;28;20047;-73
2021/05/29 03:03:27;;;;;;;3.75;3.03;;;;;;;;;;5074000;28;20063;-72
2021/05/29 03:05:53;;;;;;;3.70;3.38;;;;;;;;;;5073827;28;20021;-72
2021/05/29 03:08:20;;;;;;;5.88;3.17;;;;;;;;;;5074062;28;20414;-75
2021/05/29 03:10:46;;;;;;;3.92;3.45;;;;;;;;;;5073769;28;20052;-75
2021/05/29 03:13:12;;;;;;;2.90;2.70;;;;;;;;;;5073715;28;20032;-76
2021/05/29 03:15:39;;;;;;;5.65;2.97;;;;;;;;;;5073750;28;20372;-76
2021/05/29 03:18:05;;;;;;;4.05;3.20;;;;;;;;;;5074193;28;20390;-76
2021/05/29 03:20:31;;;;;;;4.13;3.13;;;;;;;;;;5073701;28;20445;-76
2021/05/29 03:22:57;;;;;;;3.30;3.00;;;;;;;;;;5073977;28;20108;-76
2021/05/29 03:25:23;;;;;;;4.68;3.00;;;;;;;;;;5074096;28;20028;-76
2021/05/29 03:27:51;;;;;;;3.17;2.88;;;;;;;;;;5074126;28;20496;-76
2021/05/29 03:30:18;;;;;;;5.75;3.20;;;;;;;;;;5073627;28;20515;-76
2021/05/29 03:32:45;;;;;;;3.47;3.17;;;;;;;;;;5073339;28;20038;-75
2021/05/29 03:35:12;;;;;;;3.22;2.60;;;;;;;;;;5073792;28;20365;-76
2021/05/29 03:37:38;;;;;;;2.60;2.40;;;;;;;;;;5073937;28;20063;-76
2021/05/29 03:40:05;;;;;;;3.35;3.05;;;;;;;;;;5073627;28;20029;-76
2021/05/29 03:42:31;;;;;;;4.72;3.05;;;;;;;;;;5073533;28;20600;-73
2021/05/29 03:44:57;;;;;;;3.28;2.97;;;;;;;;;;5073561;28;20047;-73
2021/05/29 03:47:23;;;;;;;2.85;2.53;;;;;;;;;;5073329;28;20119;-72
2021/05/29 03:49:49;;;;;;;3.95;3.03;;;;;;;;;;5073222;28;20021;-73
2021/05/29 03:52:15;;;;;;;3.05;2.75;;;;;;;;;;5073725;28;20052;-72
2021/05/29 03:54:41;;;;;;;2.72;2.53;;;;;;;;;;5073736;28;20031;-73
2021/05/29 03:57:07;;;;;;;2.70;2.50;;;;;;;;;;5073666;28;20462;-75
2021/05/29 03:59:33;;;;;;;3.00;2.80;;;;;;;;;;5072765;28;20028;-74
2021/05/29 04:01:59;;;;;;;3.25;2.83;;;;;;;;;;5073211;28;20082;-75
2021/05/29 04:04:26;;;;;;;3.83;3.15;;;;;;;;;;5072818;28;20720;-75
2021/05/29 04:06:52;;;;;;;3.13;2.83;;;;;;;;;;5073408;28;20062;-75
2021/05/29 04:09:18;;;;;;;2.92;2.55;;;;;;;;;;5073461;28;20417;-75
2021/05/29 04:11:44;;;;;;;3.80;2.78;;;;;;;;;;5073417;28;20024;-75
2021/05/29 04:14:10;;;;;;;3.28;2.97;;;;;;;;;;5073413;28;20025;-74
2021/05/29 04:16:36;;;;;;;4.13;3.25;;;;;;;;;;5073166;28;20115;-74
2021/05/29 04:19:02;;;;;;;3.15;2.78;;;;;;;;;;5072975;28;20477;-74
2021/05/29 04:21:28;;;;;;;3.80;2.90;;;;;;;;;;5073665;28;20052;-74
2021/05/29 04:23:55;;;;;;;2.60;2.40;;;;;;;;;;5073421;28;20028;-75
2021/05/29 04:26:21;;;;;;;3.20;2.90;;;;;;;;;;5072994;28;20416;-74
2021/05/29 04:28:48;;;;;;;2.60;2.40;;;;;;;;;;5073289;28;20109;-75
2021/05/29 04:31:14;;;;;;;3.22;2.35;;;;;;;;;;5073021;28;20021;-73
2021/05/29 04:33:40;;;;;;;3.00;2.60;;;;;;;;;;5073082;28;20105;-75
2021/05/29 04:36:06;;;;;;;3.15;2.85;;;;;;;;;;5073205;28;20029;-73
2021/05/29 04:38:32;;;;;;;3.33;3.03;;;;;;;;;;5072646;28;20374;-74
2021/05/29 04:40:58;;;;;;;3.85;3.10;;;;;;;;;;5073121;28;20032;-72
2021/05/29 04:43:24;;;;;;;2.33;2.13;;;;;;;;;;5072709;28;20036;-73
2021/05/29 04:45:50;;;;;;;3.22;2.67;;;;;;;;;;5072906;28;20021;-74
2021/05/29 04:48:17;;;;;;;2.55;2.35;;;;;;;;;;5072659;28;20024;-75
2021/05/29 04:53:30;;;;;;;2.85;2.55;;;;;;;;;;5058171;28;20041;-75
2021/05/29 04:55:58;;;;;;;2.85;2.60;;;;;;;;;;5074351;28;20108;-75
2021/05/29 04:58:24;;;;;;;6.70;2.63;;;;;;;;;;5093429;28;20030;-74
2021/05/29 05:00:50;;;;;;;3.53;2.75;;;;;;;;;;5092829;28;20473;-74
2021/05/29 05:03:16;;;;;;;3.10;2.80;;;;;;;;;;5092832;28;20035;-75
2021/05/29 05:05:42;;;;;;;3.47;3.15;;;;;;;;;;5093726;28;20119;-75
2021/05/29 05:08:08;;;;;;;2.90;2.50;;;;;;;;;;5093873;28;20031;-75
2021/05/29 05:10:34;;;;;;;3.50;2.28;;;;;;;;;;5092628;28;20056;-74
2021/05/29 05:13:00;;;;;;;3.03;2.72;;;;;;;;;;5094590;28;20036;-75
2021/05/29 05:15:27;;;;;;;2.25;2.05;;;;;;;;;;5096517;28;20024;-75
2021/05/29 05:17:53;;;;;;;3.17;2.88;;;;;;;;;;5097121;28;20140;-75
2021/05/29 05:20:19;;;;;;;3.17;2.38;;;;;;;;;;5096824;28;20020;-76
2021/05/29 05:22:45;;;;;;;2.42;2.22;;;;;;;;;;5095329;28;20107;-77
2021/05/29 05:25:11;;;;;;;5.18;2.50;;;;;;;;;;5096728;28;20043;-75
2021/05/29 05:27:37;;;;;;;4.68;2.80;;;;;;;;;;5096682;28;20024;-74
2021/05/29 05:30:07;;;;;;;3.63;2.40;;;;;;;;;;5094175;28;20024;-74
2021/05/29 05:32:33;;;;;;;2.60;2.40;;;;;;;;;;5094351;28;20397;-76
2021/05/29 05:34:59;;;;;;;6.38;3.05;;;;;;;;;;5096734;28;20020;-76
2021/05/29 05:37:26;;;;;;;2.95;2.50;;;;;;;;;;5096647;28;20035;-74
2021/05/29 05:39:52;;;;;;;2.40;2.20;;;;;;;;;;5096752;28;20028;-74
2021/05/29 05:42:18;;;;;;;2.50;2.28;;;;;;;;;;5094644;28;20024;-71
2021/05/29 05:44:44;;;;;;;3.08;2.65;;;;;;;;;;5096076;28;20027;-73
2021/05/29 05:47:11;;;;;;;3.75;2.28;;;;;;;;;;5096400;28;20016;-71
2021/05/29 05:49:38;;;;;;;6.10;3.17;;;;;;;;;;5096811;28;20119;-74
2021/05/29 05:52:04;;;;;;;4.53;2.15;;;;;;;;;;5094464;28;20071;-73
2021/05/29 05:54:30;;;;;;;2.85;2.40;;;;;;;;;;5096241;28;20036;-73
2021/05/29 05:56:56;;;;;;;8.30;2.50;;;;;;;;;;5096785;28;20021;-73
2021/05/29 05:59:22;;;;;;;5.18;2.15;;;;;;;;;;5096407;28;20027;-76
2021/05/29 06:01:48;;;;;;;2.63;2.15;;;;;;;;;;5094955;28;20016;-76
2021/05/29 06:04:15;;;;;;;3.70;2.60;;;;;;;;;;5096304;28;20028;-74
2021/05/29 06:06:41;;;;;;;6.53;2.13;;;;;;;;;;5096428;28;20377;-75
2021/05/29 06:09:07;;;;;;;7.75;2.28;;;;;;;;;;5096420;28;20024;-76
2021/05/29 06:11:33;;;;;;;9.38;2.20;;;;;;;;;;5097729;28;20016;-75
2021/05/29 06:19:31;;;;;;;8.93;3.50;;;;;;;;;;5080917;28;20031;-75
2021/05/29 06:21:58;;;;;;;11.63;4.20;;;;;;;;;;5093059;28;20027;-75
2021/05/29 06:24:28;;;;;;;16.63;4.75;;;;;;;;;;5094256;28;20042;-76
2021/05/29 06:26:54;;;;;;;13.25;3.90;;;;;;;;;;5094025;28;20027;-76
2021/05/29 06:29:21;;;;;;;11.45;3.67;;;;;;;;;;5095669;28;20028;-75
2021/05/29 06:31:47;;;;;;;11.20;4.82;;;;;;;;;;5094059;28;20065;-75
2021/05/29 06:34:13;;;;;;;25.27;5.40;;;;;;;;;;5094733;28;20492;-75
2021/05/29 06:36:39;;;;;;;16.00;3.70;;;;;;;;;;5095594;28;20047;-74
2021/05/29 06:39:05;;;;;;;9.02;3.60;;;;;;;;;;5095517;28;20107;-74
2021/05/29 06:41:31;;;;;;;9.57;3.40;;;;;;;;;;5095688;28;20016;-72
2021/05/29 06:43:57;;;;;;;7.60;3.47;;;;;;;;;;5093769;28;20054;-72
2021/05/29 06:46:23;;;;;;;10.32;4.25;;;;;;;;;;5095031;28;20531;-73
2021/05/29 06:48:50;;;;;;;4.03;2.97;;;;;;;;;;5094967;28;20061;-73
2021/05/29 06:51:23;;;;;;;7.88;3.20;;;;;;;;;;5095275;28;20052;-72
2021/05/29 06:53:51;;;;;;;14.35;4.20;;;;;;;;;;5092830;28;20036;-73
2021/05/29 06:59:04;;;;;;;6.10;2.83;;;;;;;;;;5059753;28;20033;-72
2021/05/29 07:01:30;;;;;;;4.75;2.80;;;;;;;;;;5087479;28;20032;-72
2021/05/29 07:03:56;;;;;;;8.68;2.90;;;;;;;;;;5093217;28;20450;-72
2021/05/29 07:06:22;;;;;;;7.18;3.38;;;;;;;;;;5094282;28;20614;-73
2021/05/29 07:08:48;;;;;;;5.68;3.00;;;;;;;;;;5094215;28;20076;-72
2021/05/29 07:11:15;;;;;;;3.70;2.38;;;;;;;;;;5094518;28;20425;-72
2021/05/29 07:13:41;;;;;;;4.13;2.38;;;;;;;;;;5092904;28;20032;-74
2021/05/29 07:16:07;;;;;;;2.65;2.25;;;;;;;;;;5094288;28;20062;-72
2021/05/29 07:18:43;;;;;;;4.32;2.67;;;;;;;;;;5102374;28;20350;-71
2021/05/29 07:21:09;;;;;;;2.83;2.28;;;;;;;;;;5115043;28;20114;-72
2021/05/29 07:23:35;;;;;;;4.45;2.38;;;;;;;;;;5097151;28;20107;-72
2021/05/29 07:26:01;;;;;;;2.03;1.92;;;;;;;;;;5094935;28;20020;-74
2021/05/29 07:28:28;;;;;;;5.57;2.45;;;;;;;;;;5095064;28;20115;-74
2021/05/29 07:30:54;;;;;;;2.83;2.28;;;;;;;;;;5094399;28;20020;-74
2021/05/29 07:33:23;;;;;;;3.65;2.15;;;;;;;;;;5092669;28;20039;-74
2021/05/29 07:35:49;;;;;;;4.53;2.13;;;;;;;;;;5093759;28;20480;-72
2021/05/29 07:38:15;;;;;;;11.43;2.42;;;;;;;;;;5093971;28;20089;-73
2021/05/29 07:40:41;;;;;;;2.58;2.17;;;;;;;;;;5094483;28;20027;-72
2021/05/29 07:43:07;;;;;;;2.22;2.03;;;;;;;;;;5092961;28;20020;-72
2021/05/29 07:45:33;;;;;;;2.63;1.98;;;;;;;;;;5093296;28;20028;-72
2021/05/29 07:47:59;;;;;;;1.73;1.55;;;;;;;;;;5091931;28;20020;-72
2021/05/29 07:50:26;;;;;;;3.13;2.05;;;;;;;;;;5092766;28;20035;-74
2021/05/29 07:52:52;;;;;;;7.80;2.20;;;;;;;;;;5093112;28;20132;-72
2021/05/29 07:55:20;;;;;;;2.28;2.05;;;;;;;;;;5093822;28;20100;-72
2021/05/29 07:57:46;;;;;;;2.78;2.50;;;;;;;;;;5093134;28;20115;-74
2021/05/29 08:00:15;;;;;;;4.40;2.40;;;;;;;;;;5093094;28;20085;-74
2021/05/29 08:02:41;;;;;;;3.47;2.25;;;;;;;;;;5092977;28;20031;-72
2021/05/29 08:05:15;;;;;;;4.95;2.50;;;;;;;;;;5093230;28;20389;-72
2021/05/29 08:07:41;;;;;;;3.63;2.13;;;;;;;;;;5092580;28;20050;-72
2021/05/29 08:10:08;;;;;;;4.30;2.40;;;;;;;;;;5093496;28;20024;-72
2021/05/29 08:12:34;;;;;;;4.00;2.40;;;;;;;;;;5092545;28;20035;-72
2021/05/29 08:15:00;;;;;;;5.85;2.17;;;;;;;;;;5092797;28;20519;-72
2021/05/29 08:17:26;;;;;;;2.65;2.15;;;;;;;;;;5093000;28;20084;-75
2021/05/29 08:19:52;;;;;;;2.22;1.85;;;;;;;;;;5093347;28;20027;-75
2021/05/29 08:22:18;;;;;;;4.05;2.60;;;;;;;;;;5092772;28;20034;-76
2021/05/29 08:24:44;;;;;;;4.88;2.17;;;;;;;;;;5092840;28;20024;-75
2021/05/29 08:27:10;;;;;;;7.57;3.03;;;;;;;;;;5093067;28;20383;-73
2021/05/29 08:29:36;;;;;;;8.73;3.28;;;;;;;;;;5093046;28;20024;-74
2021/05/29 08:32:03;;;;;;;6.57;3.28;;;;;;;;;;5092539;28;20032;-72
2021/05/29 08:34:29;;;;;;;4.13;2.72;;;;;;;;;;5092557;28;20020;-75
2021/05/29 08:36:55;;;;;;;4.40;2.97;;;;;;;;;;5093820;28;20028;-76
2021/05/29 08:39:21;;;;;;;8.50;2.95;;;;;;;;;;5093052;28;20028;-75
2021/05/29 08:41:47;;;;;;;3.65;2.42;;;;;;;;;;5092602;28;20367;-74
2021/05/29 08:44:13;;;;;;;2.42;2.22;;;;;;;;;;5093973;28;20081;-76
2021/05/29 08:46:39;;;;;;;5.40;2.45;;;;;;;;;;5095997;28;20159;-73
2021/05/29 08:49:05;;;;;;;2.53;2.17;;;;;;;;;;5096783;28;20485;-76
2021/05/29 08:51:31;;;;;;;5.35;2.97;;;;;;;;;;5097191;28;20044;-74
2021/05/29 08:53:57;;;;;;;3.38;2.55;;;;;;;;;;5096048;28;20389;-74
2021/05/29 08:56:24;;;;;;;3.25;2.88;;;;;;;;;;5096768;28;20101;-74
2021/05/29 08:58:50;;;;;;;4.10;3.70;;;;;;;;;;5097010;28;20028;-72
2021/05/29 09:01:16;;;;;;;4.93;2.95;;;;;;;;;;5097511;28;20023;-71
2021/05/29 09:03:59;;;;;;;4.05;2.75;;;;;;;;;;5096355;28;20381;-70
2021/05/29 09:06:46;;;;;;;4.65;2.80;;;;;;;;;;5096929;28;20121;-72
2021/05/29 09:09:13;;;;;;;4.50;3.35;;;;;;;;;;5082293;28;20472;-74
2021/05/29 09:11:45;;;;;;;3.00;2.70;;;;;;;;;;5096693;28;20111;-73
2021/05/29 09:14:11;;;;;;;;;;;;;;;;;;5096189;28;20070;-74
2021/05/29 09:16:37;;;;;;;3.55;2.90;;;;;;;;;;5084421;28;19947;-72
2021/05/29 09:19:03;;;;;;;3.83;2.72;;;;;;;;;;5085459;28;20473;-73
2021/05/29 09:21:30;;;;;;;3.20;2.53;;;;;;;;;;5084223;28;20016;-73
2021/05/29 09:24:05;;;;;;;5.85;3.60;;;;;;;;;;5083851;28;20050;-73
2021/05/29 09:26:50;;;;;;;2.80;2.42;;;;;;;;;;5084085;28;20082;-75
2021/05/29 09:29:18;;;;;;;7.28;2.95;;;;;;;;;;5084873;28;20052;-74
2021/05/29 09:32:05;;;;;;;2.40;2.20;;;;;;;;;;5095776;28;20098;-71
2021/05/29 09:34:32;;;;;;;4.22;2.35;;;;;;;;;;5080380;28;20127;-70
2021/05/29 09:37:02;;;;;;;3.22;2.95;;;;;;;;;;5087488;28;20027;-70
2021/05/29 09:39:30;;;;;;;2.42;2.22;;;;;;;;;;5085435;28;20111;-71
2021/05/29 09:41:58;;;;;;;7.63;3.65;;;;;;;;;;5080042;28;20070;-71
2021/05/29 09:44:26;;;;;;;4.32;3.90;;;;;;;;;;5074724;28;20413;-73
2021/05/29 09:46:54;;;;;;;7.03;4.40;;;;;;;;;;5074834;28;20025;-73
2021/05/29 09:49:20;;;;;;;5.32;3.80;;;;;;;;;;5074943;28;20131;-72
2021/05/29 09:51:46;;;;;;;4.30;3.10;;;;;;;;;;5075932;28;20053;-69
2021/05/29 09:54:12;;;;;;;6.40;2.90;;;;;;;;;;5075031;28;20033;-71
2021/05/29 09:56:41;;;;;;;4.28;2.75;;;;;;;;;;5075316;28;20060;-70
2021/05/29 09:59:08;;;;;;;3.08;2.80;;;;;;;;;;5075056;28;20028;-70
2021/05/29 10:01:35;;;;;;;7.40;3.50;;;;;;;;;;5075171;28;20036;-71
2021/05/29 10:04:01;;;;;;;8.60;3.70;;;;;;;;;;5074951;28;20370;-69
2021/05/29 10:06:27;;;;;;;4.60;3.35;;;;;;;;;;5074825;28;20469;-70
2021/05/29 10:08:53;;;;;;;3.97;3.50;;;;;;;;;;5075708;28;20359;-69
2021/05/29 10:11:19;;;;;;;4.10;3.70;;;;;;;;;;5074410;28;20036;-70
2021/05/29 10:13:45;;;;;;;3.45;3.15;;;;;;;;;;5075505;28;20040;-70
2021/05/29 10:16:11;;;;;;;8.82;3.75;;;;;;;;;;5074492;28;20067;-71
2021/05/29 10:18:38;;;;;;;14.73;3.72;;;;;;;;;;5074821;28;20553;-70
2021/05/29 10:21:04;;;;;;;4.68;3.80;;;;;;;;;;5074748;28;20028;-69
2021/05/29 10:23:30;;;;;;;8.57;4.25;;;;;;;;;;5074475;28;20028;-69
2021/05/29 10:25:56;;;;;;;5.88;3.58;;;;;;;;;;5074897;28;20035;-70
2021/05/29 10:28:23;;;;;;;6.95;4.00;;;;;;;;;;5076626;28;20394;-71
2021/05/29 10:30:50;;;;;;;6.05;3.50;;;;;;;;;;5074516;28;20100;-72
2021/05/29 10:33:19;;;;;;;4.13;3.47;;;;;;;;;;5074444;28;20051;-71
2021/05/29 10:35:45;;;;;;;9.32;3.47;;;;;;;;;;5074685;28;20020;-70
2021/05/29 10:38:12;;;;;;;4.72;3.60;;;;;;;;;;5073914;28;20025;-69
2021/05/29 10:40:39;;;;;;;11.90;3.92;;;;;;;;;;5074970;28;20020;-72
2021/05/29 10:43:14;;;;;;;5.35;4.28;;;;;;;;;;5074123;28;20032;-69
2021/05/29 10:45:40;;;;;;;12.05;4.38;;;;;;;;;;5073908;28;20028;-68
2021/05/29 10:48:14;;;;;;;23.10;5.38;;;;;;;;;;5074517;28;20024;-69
2021/05/29 10:51:03;;;;;;;13.88;5.05;;;;;;;;;;5074593;28;20028;-71
2021/05/29 10:53:49;;;;;;;5.15;3.20;;;;;;;;;;5074060;28;20040;-71
2021/05/29 10:56:26;;;;;;;6.50;4.28;;;;;;;;;;5058964;28;20039;-71
2021/05/29 10:59:01;;;;;;;15.70;4.88;;;;;;;;;;5074123;28;20107;-71
2021/05/29 11:01:48;;;;;;;10.43;6.20;;;;;;;;;;5074306;28;20056;-69
2021/05/29 11:04:22;;;;;;;20.20;7.88;;;;;;;;;;5059451;28;20034;-72
2021/05/29 11:06:52;;;;;;;12.27;8.07;;;;;;;;;;5073665;28;20032;-73
2021/05/29 11:09:38;;;;;;;12.15;6.32;;;;;;;;;;5073232;28;20020;-72
2021/05/29 11:12:05;;;;;;;12.20;6.53;;;;;;;;;;5060122;28;20504;-71
2021/05/29 11:14:32;;;;;;;9.90;5.85;;;;;;;;;;5073458;28;20037;-72
2021/05/29 11:17:06;;;;;;;13.43;5.05;;;;;;;;;;5073635;28;20082;-72
2021/05/29 11:19:33;;;;;;;9.02;5.53;;;;;;;;;;5073735;28;20378;-77
2021/05/29 11:22:04;;;;;;;8.45;5.97;;;;;;;;;;5072872;28;20409;-70
2021/05/29 11:24:32;;;;;;;16.92;5.53;;;;;;;;;;5073746;28;20081;-71
2021/05/29 11:27:05;;;;;;;18.70;5.60;;;;;;;;;;5075175;28;20441;-72
2021/05/29 11:29:46;;;;;;;11.07;4.97;;;;;;;;;;5072165;28;20017;-73
2021/05/29 11:32:12;;;;;;;13.20;7.70;;;;;;;;;;5073420;28;20024;-71
2021/05/29 11:34:41;;;;;;;21.35;6.68;;;;;;;;;;5072975;28;20119;-73
2021/05/29 11:37:11;;;;;;;9.68;7.57;;;;;;;;;;5072479;28;20189;-70
2021/05/29 11:39:37;;;;;;;9.07;6.80;;;;;;;;;;5072440;28;20029;-71
2021/05/29 11:42:05;;;;;;;23.55;6.60;;;;;;;;;;5072852;28;20021;-71
2021/05/29 11:44:32;;;;;;;8.10;7.05;;;;;;;;;;5072070;28;20040;-71
2021/05/29 11:46:59;;;;;;;16.15;6.68;;;;;;;;;;5072940;28;20024;-70
2021/05/29 11:49:26;;;;;;;6.47;5.60;;;;;;;;;;5073191;28;20028;-72
2021/05/29 11:51:52;;;;;;;12.88;5.40;;;;;;;;;;5072148;28;20068;-69
2021/05/29 11:54:20;;;;;;;10.48;5.60;;;;;;;;;;5072446;28;20094;-70
2021/05/29 11:56:48;;;;;;;14.50;5.72;;;;;;;;;;5073832;28;20025;-70
2021/05/29 11:59:15;;;;;;;8.68;5.20;;;;;;;;;;5082126;28;20016;-70
2021/05/29 12:01:43;;;;;;;5.85;5.32;;;;;;;;;;5079906;28;20016;-70
2021/05/29 12:04:09;;;;;;;7.55;5.22;;;;;;;;;;5087538;28;20028;-72
2021/05/29 12:06:37;;;;;;;8.30;4.75;;;;;;;;;;5075390;28;20025;-69
2021/05/29 12:09:04;;;;;;;13.52;5.63;;;;;;;;;;5073253;28;20033;-69
2021/05/29 12:11:31;;;;;;;6.80;4.45;;;;;;;;;;5077448;28;20128;-69
2021/05/29 12:13:58;;;;;;;5.78;4.68;;;;;;;;;;5081734;28;20025;-70
2021/05/29 12:16:25;;;;;;;6.25;4.40;;;;;;;;;;5082009;28;20086;-69
2021/05/29 12:18:51;;;;;;;6.97;4.55;;;;;;;;;;5080515;28;20024;-70
2021/05/29 12:21:19;;;;;;;4.75;4.25;;;;;;;;;;5084837;28;20095;-68
2021/05/29 12:23:54;;;;;;;9.45;4.93;;;;;;;;;;5086435;28;20491;-71
2021/05/29 12:26:21;;;;;;;6.55;4.78;;;;;;;;;;5084755;28;20036;-68
2021/05/29 12:28:47;;;;;;;4.75;4.22;;;;;;;;;;5084601;28;20054;-68
2021/05/29 12:31:13;;;;;;;4.47;4.05;;;;;;;;;;5086539;28;20017;-68
2021/05/29 12:33:39;;;;;;;4.28;3.90;;;;;;;;;;5085024;28;20078;-69
2021/05/29 12:36:09;;;;;;;4.38;3.97;;;;;;;;;;5084943;28;20020;-69
2021/05/29 12:38:35;;;;;;;4.68;4.22;;;;;;;;;;5080902;28;20026;-69
2021/05/29 12:41:07;;;;;;;6.88;4.18;;;;;;;;;;5076512;28;20036;-70
2021/05/29 12:43:33;;;;;;;9.35;4.07;;;;;;;;;;5076467;28;20141;-69
2021/05/29 12:45:59;;;;;;;5.15;4.05;;;;;;;;;;5076457;28;20105;-68
2021/05/29 12:48:25;;;;;;;10.13;3.88;;;;;;;;;;5076278;28;20477;-68
2021/05/29 12:51:00;;;;;;;4.40;3.72;;;;;;;;;;5076191;28;20051;-73
2021/05/29 12:53:27;;;;;;;7.22;4.38;;;;;;;;;;5076512;28;20040;-68
2021/05/29 12:56:11;;;;;;;8.70;4.15;;;;;;;;;;5076199;28;20090;-68
2021/05/29 12:58:37;;;;;;;5.10;3.97;;;;;;;;;;5076575;28;20021;-69
2021/05/29 13:09:39;;;;;;;4.78;3.97;;;;;;;;;;5060867;28;20029;-70
2021/05/29 13:12:13;;;;;;;2.92;2.60;;;;;;;;;;5075881;28;20020;-70
2021/05/29 13:14:39;;;;;;;3.20;2.90;;;;;;;;;;5075807;28;20033;-71
2021/05/29 13:17:05;;;;;;;4.25;2.88;;;;;;;;;;5076865;28;20029;-71
2021/05/29 13:19:48;;;;;;;4.80;2.83;;;;;;;;;;5074529;28;20017;-71
2021/05/29 13:22:16;;;;;;;11.40;3.45;;;;;;;;;;5074828;28;20077;-72
2021/05/29 13:24:46;;;;;;;11.02;3.72;;;;;;;;;;5076186;28;20065;-69
2021/05/29 13:27:14;;;;;;;5.80;2.80;;;;;;;;;;5075266;28;20496;-69
2021/05/29 13:29:40;;;;;;;11.07;3.15;;;;;;;;;;5077410;28;20351;-71
2021/05/29 13:32:07;;;;;;;6.93;2.78;;;;;;;;;;5078617;28;20379;-71
2021/05/29 13:34:33;;;;;;;4.70;2.53;;;;;;;;;;5075491;28;20021;-70
2021/05/29 13:36:59;;;;;;;8.45;2.70;;;;;;;;;;5083917;28;20021;-71
2021/05/29 13:39:25;;;;;;;2.83;2.42;;;;;;;;;;5089127;28;20692;-69
2021/05/29 13:41:51;;;;;;;4.90;2.50;;;;;;;;;;5092126;28;20074;-68
2021/05/29 13:44:18;;;;;;;11.85;2.95;;;;;;;;;;5095158;28;20031;-73
2021/05/29 13:46:44;;;;;;;6.78;2.90;;;;;;;;;;5095293;28;20081;-74
2021/05/29 13:49:10;;;;;;;5.93;3.83;;;;;;;;;;5095906;28;20106;-74
2021/05/29 13:51:36;;;;;;;6.88;6.18;;;;;;;;;;5095035;28;20113;-73
2021/05/29 13:54:03;;;;;;;7.18;4.03;;;;;;;;;;5095220;28;20126;-74
2021/05/29 13:56:29;;;;;;;5.55;4.95;;;;;;;;;;5095210;28;20030;-72
2021/05/29 13:58:55;;;;;;;5.30;4.50;;;;;;;;;;5095612;28;20038;-72
2021/05/29 14:01:21;;;;;;;11.82;4.80;;;;;;;;;;5095476;28;20028;-74
2021/05/29 14:03:47;;;;;;;6.78;3.83;;;;;;;;;;5095096;28;20028;-73
2021/05/29 14:06:13;;;;;;;9.52;6.30;;;;;;;;;;5095180;28;20024;-75
2021/05/29 14:08:39;;;;;;;7.03;5.07;;;;;;;;;;5094910;28;20092;-70
2021/05/29 14:11:07;;;;;;;7.93;5.78;;;;;;;;;;5094950;28;20031;-69
2021/05/29 14:13:33;;;;;;;20.48;5.40;;;;;;;;;;5094779;28;20112;-70
2021/05/29 14:15:59;;;;;;;7.47;4.82;;;;;;;;;;5094824;28;20024;-70
2021/05/29 14:18:25;;;;;;;13.50;4.80;;;;;;;;;;5095218;28;20032;-70
2021/05/29 14:20:53;;;;;;;16.90;5.10;;;;;;;;;;5094502;28;20024;-71
2021/05/29 14:23:19;;;;;;;17.55;5.00;;;;;;;;;;5095171;28;20115;-70
2021/05/29 14:25:45;;;;;;;13.57;5.65;;;;;;;;;;5094642;28;20359;-71
2021/05/29 14:28:11;;;;;;;21.42;4.63;;;;;;;;;;5087122;28;20035;-76
2021/05/29 14:30:37;;;;;;;20.63;5.30;;;;;;;;;;5083237;28;20028;-74
2021/05/29 14:33:03;;;;;;;21.38;5.35;;;;;;;;;;5088646;28;20036;-71
2021/05/29 14:35:32;;;;;;;15.35;4.32;;;;;;;;;;5090991;28;20024;-74
2021/05/29 14:37:58;;;;;;;17.15;5.50;;;;;;;;;;5082663;28;20031;-71
2021/05/29 14:40:24;;;;;;;19.42;5.63;;;;;;;;;;5088466;28;20020;-71
2021/05/29 14:42:51;;;;;;;7.22;4.38;;;;;;;;;;5094932;28;20024;-76
2021/05/29 14:45:17;;;;;;;19.67;4.43;;;;;;;;;;5095043;28;20426;-74
2021/05/29 14:47:43;;;;;;;26.63;5.32;;;;;;;;;;5095121;28;20028;-75
2021/05/29 14:50:09;;;;;;;18.73;5.15;;;;;;;;;;5094381;28;20020;-76
2021/05/29 14:52:35;;;;;;;16.73;5.68;;;;;;;;;;5094997;28;20086;-71
2021/05/29 14:55:01;;;;;;;24.55;5.13;;;;;;;;;;5094894;28;20024;-72
2021/05/29 14:57:28;;;;;;;18.02;5.53;;;;;;;;;;5094363;28;20144;-72
2021/05/29 14:59:55;;;;;;;18.00;5.60;;;;;;;;;;5094542;28;20020;-71